createdAt,value
2023-02-19T00:01:36.064Z,40.63
2023-02-19T00:04:22.066Z,41.93
2023-02-19T00:06:49.953Z,41.28
2023-02-19T00:09:18.792Z,41.31
2023-02-19T00:11:46.602Z,41.11
2023-02-19T00:14:21.443Z,41.11
2023-02-19T00:16:49.228Z,41.01
2023-02-19T00:19:18.706Z,41.43
2023-02-19T00:21:45.952Z,41.61
2023-02-19T00:24:14.541Z,41.77
2023-02-19T00:26:43.105Z,42.04
2023-02-19T00:29:14.351Z,41.58
2023-02-19T00:31:42.580Z,42.12
2023-02-19T00:34:10.937Z,42.11
2023-02-19T00:36:39.745Z,41.99
2023-02-19T00:39:08.469Z,42.28
2023-02-19T00:41:35.565Z,42.42
2023-02-19T00:44:08.458Z,42.47
2023-02-19T00:46:38.517Z,42.49
2023-02-19T00:49:07.493Z,42.30
2023-02-19T00:51:37.742Z,42.47
2023-02-19T00:54:05.978Z,42.16
2023-02-19T00:56:33.690Z,42.46
2023-02-19T00:59:01.190Z,42.70
2023-02-19T01:01:30.590Z,42.54
2023-02-19T01:03:57.689Z,42.53
2023-02-19T01:06:24.919Z,42.46
2023-02-19T01:08:51.906Z,42.65
2023-02-19T01:11:20.510Z,42.94
2023-02-19T01:13:47.743Z,42.99
2023-02-19T01:16:17.870Z,42.72
2023-02-19T01:18:46.441Z,42.70
2023-02-19T01:21:19.766Z,42.66
2023-02-19T01:23:47.128Z,42.72
2023-02-19T01:26:17.695Z,42.98
2023-02-19T01:28:46.589Z,42.70
2023-02-19T01:31:17.747Z,42.85
2023-02-19T01:33:49.629Z,42.89
2023-02-19T01:36:17.263Z,43.21
2023-02-19T01:38:45.242Z,42.72
2023-02-19T01:41:16.967Z,43.01
2023-02-19T01:44:01.640Z,42.97
2023-02-19T01:46:33.119Z,42.92
2023-02-19T01:49:06.537Z,43.42
2023-02-19T01:51:36.398Z,43.55
2023-02-19T01:54:07.392Z,43.56
2023-02-19T01:56:38.532Z,43.70
2023-02-19T01:59:07.805Z,43.51
2023-02-19T02:01:38.882Z,44.05
2023-02-19T02:04:08.208Z,44.03
2023-02-19T02:06:43.096Z,43.85
2023-02-19T02:09:29.109Z,44.15
2023-02-19T02:11:56.359Z,43.92
2023-02-19T02:14:27.938Z,43.88
2023-02-19T02:17:21.434Z,44.13
2023-02-19T02:20:13.109Z,44.40
2023-02-19T02:22:55.212Z,44.27
2023-02-19T02:25:49.192Z,44.52
2023-02-19T02:28:34.047Z,44.36
2023-02-19T02:31:11.567Z,44.45
2023-02-19T02:33:44.970Z,44.57
2023-02-19T02:36:22.961Z,44.56
2023-02-19T02:38:50.368Z,45.26
2023-02-19T02:41:21.916Z,44.79
2023-02-19T02:43:49.219Z,45.03
2023-02-19T02:46:23.590Z,44.32
2023-02-19T02:49:20.109Z,45.19
2023-02-19T02:51:53.065Z,45.10
2023-02-19T02:54:46.840Z,44.67
2023-02-19T02:57:16.325Z,44.56
2023-02-19T02:59:56.774Z,44.90
2023-02-19T03:02:29.021Z,44.63
2023-02-19T03:05:38.365Z,44.99
2023-02-19T03:08:21.615Z,44.98
2023-02-19T03:11:24.479Z,45.10
2023-02-19T03:14:20.795Z,45.01
2023-02-19T03:17:07.746Z,44.72
2023-02-19T03:19:41.613Z,45.03
2023-02-19T03:22:14.941Z,45.07
2023-02-19T03:25:10.442Z,45.18
2023-02-19T03:27:41.245Z,44.75
2023-02-19T03:30:14.644Z,45.06
2023-02-19T03:32:45.291Z,44.83
2023-02-19T03:35:20.112Z,44.97
2023-02-19T03:37:55.247Z,44.79
2023-02-19T03:40:29.356Z,45.14
2023-02-19T03:43:18.974Z,45.41
2023-02-19T03:45:58.122Z,44.57
2023-02-19T03:48:36.925Z,44.99
2023-02-19T03:51:35.228Z,45.86
2023-02-19T03:54:37.833Z,45.66
2023-02-19T03:57:12.109Z,45.51
2023-02-19T04:00:03.715Z,45.82
2023-02-19T04:02:50.426Z,45.55
2023-02-19T04:05:22.998Z,45.82
2023-02-19T04:07:53.740Z,46.11
2023-02-19T04:10:28.228Z,46.10
2023-02-19T04:13:04.116Z,46.71
2023-02-19T04:15:34.348Z,46.07
2023-02-19T04:18:07.603Z,45.98
2023-02-19T04:20:41.204Z,46.38
2023-02-19T04:23:08.798Z,45.83
2023-02-19T04:25:38.541Z,45.76
2023-02-19T04:28:05.852Z,46.72
2023-02-19T04:30:32.928Z,46.28
2023-02-19T04:32:59.957Z,46.12
2023-02-19T04:35:26.971Z,46.32
2023-02-19T04:37:53.985Z,46.01
2023-02-19T04:40:20.900Z,46.03
2023-02-19T04:42:47.877Z,46.22
2023-02-19T04:45:14.809Z,46.42
2023-02-19T04:47:41.728Z,46.25
2023-02-19T04:50:08.905Z,46.19
2023-02-19T04:52:36.034Z,46.38
2023-02-19T04:55:03.050Z,46.45
2023-02-19T04:57:30.205Z,46.34
2023-02-19T04:59:57.306Z,46.29
2023-02-19T05:02:24.255Z,45.96
2023-02-19T05:04:51.128Z,46.32
2023-02-19T05:07:19.033Z,46.26
2023-02-19T05:09:45.923Z,46.52
2023-02-19T05:12:12.808Z,46.36
2023-02-19T05:14:39.722Z,46.05
2023-02-19T05:17:07.329Z,46.77
2023-02-19T05:19:34.259Z,46.54
2023-02-19T05:22:01.243Z,46.66
2023-02-19T05:24:28.514Z,46.48
2023-02-19T05:26:55.417Z,46.23
2023-02-19T05:29:22.379Z,46.66
2023-02-19T05:31:49.543Z,46.59
2023-02-19T05:34:16.517Z,46.89
2023-02-19T05:36:43.484Z,47.00
2023-02-19T05:39:11.833Z,46.62
2023-02-19T05:41:39.248Z,47.32
2023-02-19T05:44:06.162Z,46.90
2023-02-19T05:46:33.240Z,47.20
2023-02-19T05:49:00.298Z,47.56
2023-02-19T05:51:27.611Z,47.43
2023-02-19T05:53:56.354Z,47.07
2023-02-19T05:56:26.393Z,47.77
2023-02-19T05:58:54.246Z,47.20
2023-02-19T06:01:24.646Z,47.96
2023-02-19T06:03:52.189Z,47.62
2023-02-19T06:06:20.216Z,48.04
2023-02-19T06:08:50.450Z,47.80
2023-02-19T06:11:18.621Z,48.31
2023-02-19T06:13:45.854Z,48.27
2023-02-19T06:16:12.983Z,48.01
2023-02-19T06:18:41.388Z,48.46
2023-02-19T06:21:10.984Z,48.66
2023-02-19T06:23:39.379Z,48.71
2023-02-19T06:26:10.463Z,48.63
2023-02-19T06:28:38.009Z,48.25
2023-02-19T06:31:06.568Z,48.91
2023-02-19T06:33:34.063Z,48.80
2023-02-19T06:36:02.989Z,48.99
2023-02-19T06:38:30.241Z,49.04
2023-02-19T06:41:01.608Z,49.40
2023-02-19T06:43:28.883Z,49.16
2023-02-19T06:45:59.963Z,49.19
2023-02-19T06:48:28.553Z,49.19
2023-02-19T06:50:55.916Z,49.15
2023-02-19T06:53:23.673Z,48.71
2023-02-19T06:56:01.441Z,48.67
2023-02-19T06:58:30.697Z,47.61
2023-02-19T07:00:58.118Z,47.14
2023-02-19T07:03:26.411Z,46.52
2023-02-19T07:05:54.362Z,45.54
2023-02-19T07:08:21.400Z,44.89
2023-02-19T07:10:59.063Z,43.81
2023-02-19T07:13:27.055Z,42.87
2023-02-19T07:16:02.600Z,41.66
2023-02-19T07:18:32.392Z,40.80
2023-02-19T07:21:07.086Z,39.96
2023-02-19T07:23:33.917Z,39.02
2023-02-19T07:26:01.218Z,38.19
2023-02-19T07:28:28.725Z,37.18
2023-02-19T07:31:01.805Z,35.93
2023-02-19T07:33:28.786Z,35.11
2023-02-19T07:35:55.720Z,34.67
2023-02-19T07:38:26.271Z,33.74
2023-02-19T07:41:04.496Z,31.99
2023-02-19T07:43:37.080Z,32.13
2023-02-19T07:46:05.753Z,31.39
2023-02-19T07:48:34.267Z,30.19
2023-02-19T07:51:01.878Z,29.59
2023-02-19T07:53:33.416Z,29.18
2023-02-19T07:56:02.420Z,28.77
2023-02-19T07:58:30.150Z,27.55
2023-02-19T08:00:57.843Z,27.47
2023-02-19T08:03:24.968Z,26.24
2023-02-19T08:05:54.097Z,26.65
2023-02-19T08:08:21.122Z,25.28
2023-02-19T08:11:07.310Z,25.04
2023-02-19T08:13:34.530Z,24.66
2023-02-19T08:16:15.966Z,24.33
2023-02-19T08:18:47.639Z,24.21
2023-02-19T08:21:15.107Z,23.88
2023-02-19T08:23:42.062Z,22.83
2023-02-19T08:26:09.975Z,22.51
2023-02-19T08:28:37.004Z,21.69
2023-02-19T08:31:06.734Z,21.44
2023-02-19T08:33:33.943Z,21.23
2023-02-19T08:36:07.027Z,20.72
2023-02-19T08:38:35.992Z,20.66
2023-02-19T08:41:12.639Z,19.98
2023-02-19T08:43:41.583Z,19.83
2023-02-19T08:46:10.342Z,19.76
2023-02-19T08:48:38.035Z,19.95
2023-02-19T08:51:08.624Z,19.53
2023-02-19T08:53:37.007Z,19.48
2023-02-19T08:56:09.135Z,18.49
2023-02-19T08:58:37.605Z,18.43
2023-02-19T09:01:12.761Z,17.76
2023-02-19T09:03:40.434Z,17.77
2023-02-19T09:06:07.683Z,17.98
2023-02-19T09:08:34.667Z,17.19
2023-02-19T09:11:03.716Z,17.18
2023-02-19T09:13:31.305Z,16.56
2023-02-19T09:15:58.503Z,16.43
2023-02-19T09:18:26.183Z,16.45
2023-02-19T09:20:53.281Z,16.32
2023-02-19T09:23:20.608Z,16.18
2023-02-19T09:25:47.531Z,15.92
2023-02-19T09:28:14.569Z,15.96
2023-02-19T09:30:41.624Z,15.82
2023-02-19T09:33:08.705Z,15.72
2023-02-19T09:35:39.857Z,14.99
2023-02-19T09:38:07.159Z,15.09
2023-02-19T09:40:35.884Z,15.21
2023-02-19T09:43:06.732Z,14.85
2023-02-19T09:45:36.158Z,14.86
2023-02-19T09:48:06.325Z,14.40
2023-02-19T09:50:38.555Z,14.84
2023-02-19T09:53:18.526Z,13.69
2023-02-19T09:55:45.887Z,14.46
2023-02-19T09:58:25.754Z,13.97
2023-02-19T10:00:56.121Z,14.23
2023-02-19T10:03:39.339Z,13.45
2023-02-19T10:06:24.102Z,13.36
2023-02-19T10:08:55.323Z,13.64
2023-02-19T10:11:23.695Z,13.81
2023-02-19T10:14:09.537Z,13.48
2023-02-19T10:16:41.110Z,13.44
2023-02-19T10:19:12.994Z,13.33
2023-02-19T10:21:40.659Z,12.94
2023-02-19T10:24:09.567Z,12.85
2023-02-19T10:26:37.774Z,12.96
2023-02-19T10:29:05.847Z,12.83
2023-02-19T10:31:34.061Z,11.75
2023-02-19T10:34:02.220Z,12.67
2023-02-19T10:36:36.711Z,12.26
2023-02-19T10:39:26.758Z,13.05
2023-02-19T10:41:56.949Z,12.08
2023-02-19T10:44:29.108Z,12.56
2023-02-19T10:46:59.541Z,12.48
2023-02-19T10:49:31.631Z,12.12
2023-02-19T10:52:02.827Z,11.80
2023-02-19T10:54:33.260Z,11.45
2023-02-19T10:57:15.192Z,12.63
2023-02-19T10:59:57.736Z,12.34
2023-02-19T11:02:25.921Z,12.13
2023-02-19T11:05:12.172Z,12.89
2023-02-19T11:07:48.422Z,12.23
2023-02-19T11:10:21.413Z,13.02
2023-02-19T11:12:50.823Z,14.43
2023-02-19T11:15:30.574Z,12.75
2023-02-19T11:18:08.259Z,13.19
2023-02-19T11:20:35.729Z,13.93
2023-02-19T11:23:19.649Z,13.80
2023-02-19T11:25:47.410Z,12.73
2023-02-19T11:28:18.094Z,13.22
2023-02-19T11:30:48.314Z,13.06
2023-02-19T11:33:19.988Z,13.93
2023-02-19T11:35:48.443Z,14.80
2023-02-19T11:38:18.987Z,16.23
2023-02-19T11:41:21.338Z,17.36
2023-02-19T11:43:54.362Z,18.96
2023-02-19T11:46:35.582Z,20.71
2023-02-19T11:49:29.158Z,22.93
2023-02-19T11:52:38.300Z,25.16
2023-02-19T11:55:08.184Z,26.70
2023-02-19T11:57:41.412Z,26.23
2023-02-19T12:00:27.411Z,25.88
2023-02-19T12:03:03.258Z,26.14
2023-02-19T12:05:50.687Z,25.91
2023-02-19T12:08:35.330Z,25.86
2023-02-19T12:11:05.340Z,26.56
2023-02-19T12:13:54.105Z,26.56
2023-02-19T12:17:10.592Z,26.72
2023-02-19T12:19:40.583Z,26.63
2023-02-19T12:22:21.653Z,27.58
2023-02-19T12:25:07.067Z,28.41
2023-02-19T12:27:51.110Z,28.46
2023-02-19T12:30:58.574Z,28.57
2023-02-19T12:33:50.210Z,29.10
2023-02-19T12:36:36.859Z,30.19
2023-02-19T12:39:12.748Z,30.15
2023-02-19T12:41:49.305Z,30.88
2023-02-19T12:44:22.934Z,29.95
2023-02-19T12:46:54.348Z,29.95
2023-02-19T12:49:49.379Z,29.60
2023-02-19T12:52:22.430Z,29.03
2023-02-19T12:54:55.832Z,28.90
2023-02-19T12:57:35.550Z,29.31
2023-02-19T13:00:07.516Z,29.59
2023-02-19T13:03:06.262Z,29.46
2023-02-19T13:05:52.629Z,29.39
2023-02-19T13:08:34.194Z,29.84
2023-02-19T13:11:14.625Z,29.49
2023-02-19T13:13:49.703Z,30.03
2023-02-19T13:16:19.632Z,29.77
2023-02-19T13:18:56.911Z,30.16
2023-02-19T13:21:48.765Z,30.61
2023-02-19T13:24:29.089Z,31.34
2023-02-19T13:27:17.541Z,30.92
2023-02-19T13:30:03.346Z,30.96
2023-02-19T13:32:55.700Z,34.00
2023-02-19T13:35:49.646Z,33.55
2023-02-19T13:38:16.784Z,33.65
2023-02-19T13:40:54.770Z,32.66
2023-02-19T13:43:38.952Z,31.99
2023-02-19T13:46:10.167Z,31.47
2023-02-19T13:48:42.014Z,30.95
2023-02-19T13:51:26.662Z,31.08
2023-02-19T13:53:56.424Z,32.71
2023-02-19T13:56:34.285Z,32.25
2023-02-19T13:59:24.526Z,35.25
2023-02-19T14:01:54.294Z,35.71
2023-02-19T14:04:44.942Z,38.24
2023-02-19T14:07:11.782Z,37.27
2023-02-19T14:09:41.387Z,37.98
2023-02-19T14:12:09.623Z,37.97
2023-02-19T14:14:55.651Z,40.26
2023-02-19T14:17:43.081Z,40.04
2023-02-19T14:20:09.945Z,38.70
2023-02-19T14:22:58.104Z,39.17
2023-02-19T14:25:31.171Z,37.68
2023-02-19T14:28:09.985Z,37.28
2023-02-19T14:30:56.945Z,38.45
2023-02-19T14:33:33.350Z,38.45
2023-02-19T14:36:04.097Z,38.74
2023-02-19T14:38:36.424Z,38.79
2023-02-19T14:41:04.425Z,39.09
2023-02-19T14:43:32.188Z,39.84
2023-02-19T14:46:10.158Z,38.88
2023-02-19T14:48:43.499Z,39.21
2023-02-19T14:51:36.501Z,41.02
2023-02-19T14:54:29.401Z,40.92
2023-02-19T14:56:58.417Z,42.04
2023-02-19T14:59:30.207Z,42.09
2023-02-19T15:02:14.638Z,42.75
2023-02-19T15:04:41.563Z,41.63
2023-02-19T15:07:12.042Z,41.75
2023-02-19T15:09:44.655Z,43.69
2023-02-19T15:12:23.052Z,43.63
2023-02-19T15:14:53.204Z,43.03
2023-02-19T15:17:26.765Z,43.29
2023-02-19T15:19:55.901Z,42.61
2023-02-19T15:22:25.872Z,42.19
2023-02-19T15:24:52.795Z,42.16
2023-02-19T15:27:22.836Z,43.31
2023-02-19T15:29:53.483Z,42.06
2023-02-19T15:32:27.114Z,43.22
2023-02-19T15:35:04.944Z,42.78
2023-02-19T15:37:35.762Z,42.56
2023-02-19T15:40:07.759Z,42.84
2023-02-19T15:42:37.235Z,42.59
2023-02-19T15:45:22.211Z,42.37
2023-02-19T15:47:56.072Z,42.40
2023-02-19T15:50:27.377Z,43.17
2023-02-19T15:53:01.310Z,42.88
2023-02-19T15:55:34.987Z,43.69
2023-02-19T15:58:12.828Z,43.86
2023-02-19T16:00:47.963Z,43.84
2023-02-19T16:03:26.338Z,44.40
2023-02-19T16:06:11.586Z,45.08
2023-02-19T16:08:40.140Z,44.34
2023-02-19T16:11:53.493Z,44.58
2023-02-19T16:14:37.644Z,45.32
2023-02-19T16:17:22.322Z,44.90
2023-02-19T16:19:58.023Z,45.28
2023-02-19T16:22:29.215Z,45.02
2023-02-19T16:25:03.254Z,44.93
2023-02-19T16:27:39.976Z,44.83
2023-02-19T16:30:17.920Z,44.51
2023-02-19T16:32:46.976Z,44.52
2023-02-19T16:35:49.827Z,45.00
2023-02-19T16:38:17.640Z,44.40
2023-02-19T16:40:54.640Z,44.78
2023-02-19T16:43:29.333Z,44.89
2023-02-19T16:45:56.522Z,44.68
2023-02-19T16:48:24.149Z,45.06
2023-02-19T16:50:53.964Z,45.58
2023-02-19T16:53:25.378Z,45.40
2023-02-19T16:55:52.565Z,45.13
2023-02-19T16:58:19.626Z,45.35
2023-02-19T17:00:48.015Z,45.52
2023-02-19T17:03:19.862Z,45.73
2023-02-19T17:05:47.378Z,45.49
2023-02-19T17:08:35.053Z,45.45
2023-02-19T17:11:04.715Z,45.52
2023-02-19T17:13:31.695Z,45.66
2023-02-19T17:15:59.200Z,45.72
2023-02-19T17:18:26.468Z,46.00
2023-02-19T17:21:13.486Z,46.92
2023-02-19T17:23:40.818Z,46.86
2023-02-19T17:26:14.012Z,47.57
2023-02-19T17:28:41.537Z,48.62
2023-02-19T17:31:10.932Z,48.02
2023-02-19T17:33:38.845Z,46.80
2023-02-19T17:36:06.532Z,46.80
2023-02-19T17:38:34.240Z,47.70
2023-02-19T17:41:01.697Z,48.05
2023-02-19T17:43:28.699Z,48.26
2023-02-19T17:45:55.929Z,48.93
2023-02-19T17:48:22.879Z,48.71
2023-02-19T17:50:50.523Z,48.13
2023-02-19T17:53:17.885Z,48.32
2023-02-19T17:55:51.141Z,47.87
2023-02-19T17:58:20.615Z,47.67
2023-02-19T18:00:47.512Z,46.55
2023-02-19T18:03:14.658Z,48.26
2023-02-19T18:05:41.574Z,48.51
2023-02-19T18:08:08.635Z,47.80
2023-02-19T18:10:36.826Z,47.39
2023-02-19T18:13:04.221Z,46.77
2023-02-19T18:15:31.147Z,47.12
2023-02-19T18:17:58.482Z,46.68
2023-02-19T18:20:28.295Z,47.40
2023-02-19T18:22:56.923Z,49.08
2023-02-19T18:25:24.026Z,48.31
2023-02-19T18:27:51.036Z,48.16
2023-02-19T18:30:19.765Z,48.59
2023-02-19T18:32:50.126Z,48.72
2023-02-19T18:35:19.480Z,49.60
2023-02-19T18:37:53.698Z,49.79
2023-02-19T18:40:22.448Z,50.16
2023-02-19T18:42:49.338Z,49.16
2023-02-19T18:45:16.374Z,49.34
2023-02-19T18:47:46.706Z,49.89
2023-02-19T18:50:14.011Z,49.69
2023-02-19T18:52:40.901Z,48.47
2023-02-19T18:55:08.326Z,48.43
2023-02-19T18:57:35.272Z,49.06
2023-02-19T19:00:02.354Z,48.98
2023-02-19T19:02:36.399Z,48.63
2023-02-19T19:05:07.017Z,49.48
2023-02-19T19:07:33.902Z,49.96
2023-02-19T19:10:00.845Z,49.75
2023-02-19T19:12:27.710Z,48.75
2023-02-19T19:14:54.674Z,48.61
2023-02-19T19:17:21.597Z,48.46
2023-02-19T19:19:48.449Z,48.28
2023-02-19T19:22:16.695Z,48.15
2023-02-19T19:24:43.562Z,48.35
2023-02-19T19:27:10.848Z,48.67
2023-02-19T19:29:37.928Z,48.15
2023-02-19T19:32:08.204Z,47.79
2023-02-19T19:34:35.578Z,47.57
2023-02-19T19:37:02.473Z,46.88
2023-02-19T19:39:29.386Z,47.15
2023-02-19T19:41:57.156Z,46.69
2023-02-19T19:44:24.116Z,46.47
2023-02-19T19:46:51.147Z,46.25
2023-02-19T19:49:20.032Z,45.92
2023-02-19T19:51:47.673Z,45.95
2023-02-19T19:54:15.314Z,45.79
2023-02-19T19:56:44.496Z,45.30
2023-02-19T19:59:12.885Z,45.51
2023-02-19T20:01:39.862Z,44.96
2023-02-19T20:04:07.278Z,44.80
2023-02-19T20:06:34.149Z,44.46
2023-02-19T20:09:01.106Z,44.14
2023-02-19T20:11:28.064Z,44.10
2023-02-19T20:13:54.961Z,43.60
2023-02-19T20:16:26.774Z,43.34
2023-02-19T20:18:53.835Z,43.59
2023-02-19T20:21:20.745Z,43.50
2023-02-19T20:23:47.590Z,43.52
2023-02-19T20:26:21.914Z,43.91
2023-02-19T20:28:49.053Z,43.91
2023-02-19T20:31:16.260Z,43.70
2023-02-19T20:33:43.289Z,43.36
2023-02-19T20:36:10.473Z,43.06
2023-02-19T20:38:37.364Z,43.21
2023-02-19T20:41:05.220Z,43.02
2023-02-19T20:43:33.269Z,42.89
2023-02-19T20:46:02.117Z,42.96
2023-02-19T20:48:30.453Z,42.97
2023-02-19T20:51:00.353Z,42.80
2023-02-19T20:53:29.067Z,42.82
2023-02-19T20:55:57.063Z,42.64
2023-02-19T20:58:25.046Z,42.65
2023-02-19T21:00:54.183Z,42.78
2023-02-19T21:03:21.967Z,42.86
2023-02-19T21:05:49.234Z,42.72
2023-02-19T21:08:17.606Z,42.60
2023-02-19T21:10:46.794Z,42.84
2023-02-19T21:13:14.646Z,42.76
2023-02-19T21:15:42.543Z,42.56
2023-02-19T21:18:10.442Z,42.81
2023-02-19T21:20:38.088Z,42.89
2023-02-19T21:23:05.470Z,43.10
2023-02-19T21:25:33.324Z,43.32
2023-02-19T21:28:00.473Z,43.40
2023-02-19T21:30:27.500Z,43.46
2023-02-19T21:32:55.594Z,43.87
2023-02-19T21:35:23.730Z,43.79
2023-02-19T21:37:52.042Z,43.87
2023-02-19T21:40:21.623Z,43.67
2023-02-19T21:42:49.501Z,44.09
2023-02-19T21:45:16.642Z,43.96
2023-02-19T21:47:44.051Z,44.20
2023-02-19T21:50:11.187Z,43.94
2023-02-19T21:52:38.101Z,44.04
2023-02-19T21:55:05.234Z,44.20
2023-02-19T21:57:33.314Z,43.92
2023-02-19T22:00:00.311Z,44.14
2023-02-19T22:02:27.189Z,44.09
2023-02-19T22:04:56.114Z,44.26
2023-02-19T22:07:23.351Z,44.01
2023-02-19T22:09:51.449Z,44.15
2023-02-19T22:12:19.860Z,44.16
2023-02-19T22:14:46.768Z,44.28
2023-02-19T22:17:13.708Z,44.14
2023-02-19T22:19:40.673Z,44.06
2023-02-19T22:22:07.603Z,44.45
2023-02-19T22:24:34.577Z,44.19
2023-02-19T22:27:01.507Z,44.09
2023-02-19T22:29:28.712Z,44.32
2023-02-19T22:31:55.740Z,44.12
2023-02-19T22:34:22.906Z,44.04
2023-02-19T22:36:49.948Z,44.37
2023-02-19T22:39:20.539Z,44.21
2023-02-19T22:41:47.863Z,44.11
2023-02-19T22:44:15.252Z,44.32
2023-02-19T22:46:48.355Z,44.38
2023-02-19T22:49:15.345Z,44.22
2023-02-19T22:51:49.730Z,44.04
2023-02-19T22:54:16.947Z,44.18
2023-02-19T22:56:44.214Z,44.38
2023-02-19T22:59:12.229Z,44.43
2023-02-19T23:01:39.177Z,44.16
2023-02-19T23:04:07.049Z,44.07
2023-02-19T23:06:35.586Z,44.41
2023-02-19T23:09:08.544Z,44.53
2023-02-19T23:11:39.411Z,44.56
2023-02-19T23:14:08.052Z,44.62
2023-02-19T23:16:38.438Z,44.55
2023-02-19T23:19:08.572Z,44.68
2023-02-19T23:21:35.667Z,45.09
2023-02-19T23:24:02.563Z,44.89
2023-02-19T23:26:29.705Z,44.95
2023-02-19T23:28:56.744Z,45.00
2023-02-19T23:31:24.245Z,45.40
2023-02-19T23:33:51.134Z,45.50
2023-02-19T23:36:18.161Z,45.60
2023-02-19T23:38:46.571Z,45.24
2023-02-19T23:41:15.663Z,45.40
2023-02-19T23:43:43.135Z,45.34
2023-02-19T23:46:14.523Z,45.62
2023-02-19T23:48:41.802Z,45.52
2023-02-19T23:51:08.829Z,45.40
2023-02-19T23:53:35.802Z,45.43
2023-02-19T23:56:02.720Z,45.97
2023-02-19T23:58:29.627Z,45.37
